sensor_id;sensor_type;location;lat;lon;timestamp;P1;durP1;ratioP1;P2;durP2;ratioP2
2299;SDS011;1158;48.750;9.078;2023-07-02T00:01:42;6.70;;;4.93;;
2299;SDS011;1158;48.750;9.078;2023-07-02T00:04:09;6.70;;;5.53;;
2299;SDS011;1158;48.750;9.078;2023-07-02T00:06:40;6.77;;;5.13;;
2299;SDS011;1158;48.750;9.078;2023-07-02T00:09:06;6.17;;;5.00;;
2299;SDS011;1158;48.750;9.078;2023-07-02T00:11:34;7.53;;;5.20;;
2299;SDS011;1158;48.750;9.078;2023-07-02T00:14:00;7.00;;;5.33;;
2299;SDS011;1158;48.750;9.078;2023-07-02T00:16:27;6.53;;;5.07;;
2299;SDS011;1158;48.750;9.078;2023-07-02T00:18:54;6.97;;;4.97;;
2299;SDS011;1158;48.750;9.078;2023-07-02T00:21:21;6.30;;;4.70;;
2299;SDS011;1158;48.750;9.078;2023-07-02T00:23:49;6.10;;;4.83;;
2299;SDS011;1158;48.750;9.078;2023-07-02T00:26:16;8.63;;;4.67;;
2299;SDS011;1158;48.750;9.078;2023-07-02T00:28:43;9.73;;;5.13;;
2299;SDS011;1158;48.750;9.078;2023-07-02T00:31:10;6.40;;;5.33;;
2299;SDS011;1158;48.750;9.078;2023-07-02T00:33:36;8.13;;;5.10;;
2299;SDS011;1158;48.750;9.078;2023-07-02T00:36:03;7.80;;;5.67;;
2299;SDS011;1158;48.750;9.078;2023-07-02T00:38:30;6.50;;;4.83;;
2299;SDS011;1158;48.750;9.078;2023-07-02T00:40:58;6.20;;;5.60;;
2299;SDS011;1158;48.750;9.078;2023-07-02T00:43:25;6.13;;;4.60;;
2299;SDS011;1158;48.750;9.078;2023-07-02T00:45:51;6.50;;;4.53;;
2299;SDS011;1158;48.750;9.078;2023-07-02T00:48:18;10.17;;;4.60;;
2299;SDS011;1158;48.750;9.078;2023-07-02T00:50:45;7.70;;;4.80;;
2299;SDS011;1158;48.750;9.078;2023-07-02T00:53:12;6.60;;;4.70;;
2299;SDS011;1158;48.750;9.078;2023-07-02T00:55:39;8.07;;;4.50;;
2299;SDS011;1158;48.750;9.078;2023-07-02T00:58:07;6.33;;;4.80;;
2299;SDS011;1158;48.750;9.078;2023-07-02T01:00:35;9.53;;;4.90;;
2299;SDS011;1158;48.750;9.078;2023-07-02T01:03:02;6.80;;;4.70;;
2299;SDS011;1158;48.750;9.078;2023-07-02T01:05:28;5.83;;;4.50;;
2299;SDS011;1158;48.750;9.078;2023-07-02T01:08:00;6.07;;;4.80;;
2299;SDS011;1158;48.750;9.078;2023-07-02T01:10:27;7.77;;;5.20;;
2299;SDS011;1158;48.750;9.078;2023-07-02T01:12:56;6.20;;;4.87;;
2299;SDS011;1158;48.750;9.078;2023-07-02T01:15:27;6.13;;;4.73;;
2299;SDS011;1158;48.750;9.078;2023-07-02T01:17:54;5.27;;;4.27;;
2299;SDS011;1158;48.750;9.078;2023-07-02T01:20:24;6.33;;;4.50;;
2299;SDS011;1158;48.750;9.078;2023-07-02T01:22:51;4.83;;;4.30;;
2299;SDS011;1158;48.750;9.078;2023-07-02T01:25:19;7.20;;;4.50;;
2299;SDS011;1158;48.750;9.078;2023-07-02T01:27:49;6.80;;;4.80;;
2299;SDS011;1158;48.750;9.078;2023-07-02T01:30:16;5.30;;;4.10;;
2299;SDS011;1158;48.750;9.078;2023-07-02T01:32:43;7.03;;;5.17;;
2299;SDS011;1158;48.750;9.078;2023-07-02T01:35:10;8.93;;;4.73;;
2299;SDS011;1158;48.750;9.078;2023-07-02T01:37:38;5.33;;;4.73;;
2299;SDS011;1158;48.750;9.078;2023-07-02T01:40:05;6.70;;;4.90;;
2299;SDS011;1158;48.750;9.078;2023-07-02T01:42:33;6.33;;;4.63;;
2299;SDS011;1158;48.750;9.078;2023-07-02T01:44:59;6.70;;;4.80;;
2299;SDS011;1158;48.750;9.078;2023-07-02T01:47:26;7.00;;;4.97;;
2299;SDS011;1158;48.750;9.078;2023-07-02T01:49:53;5.87;;;5.27;;
2299;SDS011;1158;48.750;9.078;2023-07-02T01:52:20;7.27;;;4.63;;
2299;SDS011;1158;48.750;9.078;2023-07-02T01:54:48;7.73;;;5.20;;
2299;SDS011;1158;48.750;9.078;2023-07-02T01:57:17;5.60;;;4.70;;
2299;SDS011;1158;48.750;9.078;2023-07-02T01:59:44;7.80;;;5.90;;
2299;SDS011;1158;48.750;9.078;2023-07-02T02:02:10;8.93;;;4.93;;
2299;SDS011;1158;48.750;9.078;2023-07-02T02:04:37;14.40;;;5.03;;
2299;SDS011;1158;48.750;9.078;2023-07-02T02:07:04;6.80;;;5.23;;
2299;SDS011;1158;48.750;9.078;2023-07-02T02:09:30;6.97;;;5.13;;
2299;SDS011;1158;48.750;9.078;2023-07-02T02:11:59;9.20;;;5.43;;
2299;SDS011;1158;48.750;9.078;2023-07-02T02:14:25;6.53;;;5.23;;
2299;SDS011;1158;48.750;9.078;2023-07-02T02:16:52;6.87;;;5.27;;
2299;SDS011;1158;48.750;9.078;2023-07-02T02:19:19;6.13;;;5.07;;
2299;SDS011;1158;48.750;9.078;2023-07-02T02:21:46;6.10;;;4.60;;
2299;SDS011;1158;48.750;9.078;2023-07-02T02:24:12;6.90;;;4.90;;
2299;SDS011;1158;48.750;9.078;2023-07-02T02:26:39;5.43;;;4.83;;
2299;SDS011;1158;48.750;9.078;2023-07-02T02:29:07;6.57;;;5.50;;
2299;SDS011;1158;48.750;9.078;2023-07-02T02:31:34;5.97;;;4.50;;
2299;SDS011;1158;48.750;9.078;2023-07-02T02:34:01;5.67;;;4.53;;
2299;SDS011;1158;48.750;9.078;2023-07-02T02:36:27;6.30;;;4.87;;
2299;SDS011;1158;48.750;9.078;2023-07-02T02:38:54;6.37;;;4.23;;
2299;SDS011;1158;48.750;9.078;2023-07-02T02:41:21;9.07;;;5.00;;
2299;SDS011;1158;48.750;9.078;2023-07-02T02:43:48;6.37;;;4.80;;
2299;SDS011;1158;48.750;9.078;2023-07-02T02:46:20;7.20;;;4.50;;
2299;SDS011;1158;48.750;9.078;2023-07-02T02:48:48;8.20;;;4.90;;
2299;SDS011;1158;48.750;9.078;2023-07-02T02:51:15;6.07;;;4.70;;
2299;SDS011;1158;48.750;9.078;2023-07-02T02:53:41;6.80;;;4.53;;
2299;SDS011;1158;48.750;9.078;2023-07-02T02:56:08;5.80;;;4.20;;
2299;SDS011;1158;48.750;9.078;2023-07-02T02:58:35;6.60;;;4.13;;
2299;SDS011;1158;48.750;9.078;2023-07-02T03:01:01;6.20;;;4.10;;
2299;SDS011;1158;48.750;9.078;2023-07-02T03:03:37;6.90;;;4.30;;
2299;SDS011;1158;48.750;9.078;2023-07-02T03:06:05;5.93;;;4.67;;
2299;SDS011;1158;48.750;9.078;2023-07-02T03:08:32;6.27;;;4.13;;
2299;SDS011;1158;48.750;9.078;2023-07-02T03:10:59;5.13;;;3.90;;
2299;SDS011;1158;48.750;9.078;2023-07-02T03:13:26;7.87;;;4.70;;
2299;SDS011;1158;48.750;9.078;2023-07-02T03:15:53;6.37;;;4.70;;
2299;SDS011;1158;48.750;9.078;2023-07-02T03:18:20;10.53;;;4.83;;
2299;SDS011;1158;48.750;9.078;2023-07-02T03:20:48;8.50;;;5.60;;
2299;SDS011;1158;48.750;9.078;2023-07-02T03:23:15;9.30;;;5.10;;
2299;SDS011;1158;48.750;9.078;2023-07-02T03:25:41;6.63;;;4.87;;
2299;SDS011;1158;48.750;9.078;2023-07-02T03:28:08;8.60;;;5.33;;
2299;SDS011;1158;48.750;9.078;2023-07-02T03:30:35;7.70;;;5.17;;
2299;SDS011;1158;48.750;9.078;2023-07-02T03:33:02;13.23;;;6.07;;
2299;SDS011;1158;48.750;9.078;2023-07-02T03:35:28;7.63;;;5.10;;
2299;SDS011;1158;48.750;9.078;2023-07-02T03:37:57;11.80;;;6.47;;
2299;SDS011;1158;48.750;9.078;2023-07-02T03:40:23;12.00;;;5.87;;
2299;SDS011;1158;48.750;9.078;2023-07-02T03:42:50;9.40;;;5.70;;
2299;SDS011;1158;48.750;9.078;2023-07-02T03:45:17;9.70;;;6.20;;
2299;SDS011;1158;48.750;9.078;2023-07-02T03:47:43;8.83;;;5.97;;
2299;SDS011;1158;48.750;9.078;2023-07-02T03:50:10;14.60;;;6.90;;
2299;SDS011;1158;48.750;9.078;2023-07-02T03:52:37;9.60;;;7.17;;
2299;SDS011;1158;48.750;9.078;2023-07-02T03:55:06;12.17;;;6.80;;
2299;SDS011;1158;48.750;9.078;2023-07-02T03:57:33;13.53;;;6.40;;
2299;SDS011;1158;48.750;9.078;2023-07-02T04:00:00;11.77;;;7.50;;
2299;SDS011;1158;48.750;9.078;2023-07-02T04:02:27;7.83;;;6.80;;
2299;SDS011;1158;48.750;9.078;2023-07-02T04:04:54;15.60;;;7.00;;
2299;SDS011;1158;48.750;9.078;2023-07-02T04:07:20;9.00;;;6.27;;
2299;SDS011;1158;48.750;9.078;2023-07-02T04:09:47;8.63;;;6.30;;
2299;SDS011;1158;48.750;9.078;2023-07-02T04:12:15;13.03;;;7.23;;
2299;SDS011;1158;48.750;9.078;2023-07-02T04:14:42;12.13;;;7.17;;
2299;SDS011;1158;48.750;9.078;2023-07-02T04:17:09;9.57;;;6.90;;
2299;SDS011;1158;48.750;9.078;2023-07-02T04:19:35;13.53;;;7.03;;
2299;SDS011;1158;48.750;9.078;2023-07-02T04:22:02;12.50;;;7.60;;
2299;SDS011;1158;48.750;9.078;2023-07-02T04:24:29;10.20;;;6.50;;
2299;SDS011;1158;48.750;9.078;2023-07-02T04:26:56;14.00;;;7.40;;
2299;SDS011;1158;48.750;9.078;2023-07-02T04:29:26;13.17;;;7.73;;
2299;SDS011;1158;48.750;9.078;2023-07-02T04:31:53;13.13;;;7.10;;
2299;SDS011;1158;48.750;9.078;2023-07-02T04:34:19;8.73;;;6.30;;
2299;SDS011;1158;48.750;9.078;2023-07-02T04:36:47;12.97;;;6.67;;
2299;SDS011;1158;48.750;9.078;2023-07-02T04:39:14;10.33;;;6.70;;
2299;SDS011;1158;48.750;9.078;2023-07-02T04:41:40;13.80;;;6.93;;
2299;SDS011;1158;48.750;9.078;2023-07-02T04:44:07;9.00;;;6.00;;
2299;SDS011;1158;48.750;9.078;2023-07-02T04:46:36;16.40;;;6.80;;
2299;SDS011;1158;48.750;9.078;2023-07-02T04:49:03;8.20;;;5.60;;
2299;SDS011;1158;48.750;9.078;2023-07-02T04:51:30;13.20;;;6.50;;
2299;SDS011;1158;48.750;9.078;2023-07-02T04:53:57;16.17;;;6.23;;
2299;SDS011;1158;48.750;9.078;2023-07-02T04:56:23;12.13;;;6.37;;
2299;SDS011;1158;48.750;9.078;2023-07-02T04:58:50;10.23;;;6.23;;
2299;SDS011;1158;48.750;9.078;2023-07-02T05:01:17;13.70;;;5.70;;
2299;SDS011;1158;48.750;9.078;2023-07-02T05:03:45;18.60;;;6.30;;
2299;SDS011;1158;48.750;9.078;2023-07-02T05:06:12;9.70;;;5.40;;
2299;SDS011;1158;48.750;9.078;2023-07-02T05:08:38;8.83;;;6.07;;
2299;SDS011;1158;48.750;9.078;2023-07-02T05:11:05;14.00;;;6.00;;
2299;SDS011;1158;48.750;9.078;2023-07-02T05:13:33;8.40;;;5.80;;
2299;SDS011;1158;48.750;9.078;2023-07-02T05:15:59;7.57;;;5.50;;
2299;SDS011;1158;48.750;9.078;2023-07-02T05:18:26;8.57;;;5.33;;
2299;SDS011;1158;48.750;9.078;2023-07-02T05:20:54;12.63;;;5.70;;
2299;SDS011;1158;48.750;9.078;2023-07-02T05:23:21;15.23;;;6.13;;
2299;SDS011;1158;48.750;9.078;2023-07-02T05:25:48;9.93;;;6.30;;
2299;SDS011;1158;48.750;9.078;2023-07-02T05:28:14;13.10;;;5.47;;
2299;SDS011;1158;48.750;9.078;2023-07-02T05:30:41;10.83;;;6.50;;
2299;SDS011;1158;48.750;9.078;2023-07-02T05:33:08;11.47;;;6.60;;
2299;SDS011;1158;48.750;9.078;2023-07-02T05:35:35;11.80;;;6.13;;
2299;SDS011;1158;48.750;9.078;2023-07-02T05:38:03;10.70;;;6.63;;
2299;SDS011;1158;48.750;9.078;2023-07-02T05:40:30;9.47;;;6.60;;
2299;SDS011;1158;48.750;9.078;2023-07-02T05:42:57;11.90;;;6.37;;
2299;SDS011;1158;48.750;9.078;2023-07-02T05:45:23;13.00;;;6.90;;
2299;SDS011;1158;48.750;9.078;2023-07-02T05:47:52;14.67;;;7.07;;
2299;SDS011;1158;48.750;9.078;2023-07-02T05:50:19;8.70;;;6.53;;
2299;SDS011;1158;48.750;9.078;2023-07-02T05:52:46;11.40;;;6.50;;
2299;SDS011;1158;48.750;9.078;2023-07-02T05:55:14;16.57;;;6.40;;
2299;SDS011;1158;48.750;9.078;2023-07-02T05:57:40;24.00;;;6.57;;
2299;SDS011;1158;48.750;9.078;2023-07-02T06:00:08;15.03;;;6.60;;
2299;SDS011;1158;48.750;9.078;2023-07-02T06:02:35;14.87;;;6.20;;
2299;SDS011;1158;48.750;9.078;2023-07-02T06:05:02;12.83;;;7.47;;
2299;SDS011;1158;48.750;9.078;2023-07-02T06:07:29;11.27;;;7.37;;
2299;SDS011;1158;48.750;9.078;2023-07-02T06:09:56;12.40;;;7.50;;
2299;SDS011;1158;48.750;9.078;2023-07-02T06:12:24;11.50;;;6.77;;
2299;SDS011;1158;48.750;9.078;2023-07-02T06:14:51;13.60;;;7.93;;
2299;SDS011;1158;48.750;9.078;2023-07-02T06:17:18;18.83;;;7.97;;
2299;SDS011;1158;48.750;9.078;2023-07-02T06:19:45;11.53;;;7.30;;
2299;SDS011;1158;48.750;9.078;2023-07-02T06:22:12;15.60;;;8.03;;
2299;SDS011;1158;48.750;9.078;2023-07-02T06:24:39;21.10;;;9.17;;
2299;SDS011;1158;48.750;9.078;2023-07-02T06:27:06;15.50;;;7.90;;
2299;SDS011;1158;48.750;9.078;2023-07-02T06:29:34;19.97;;;8.77;;
2299;SDS011;1158;48.750;9.078;2023-07-02T06:32:01;17.70;;;8.60;;
2299;SDS011;1158;48.750;9.078;2023-07-02T06:34:27;14.63;;;9.50;;
2299;SDS011;1158;48.750;9.078;2023-07-02T06:36:54;16.70;;;8.50;;
2299;SDS011;1158;48.750;9.078;2023-07-02T06:39:21;16.70;;;9.67;;
2299;SDS011;1158;48.750;9.078;2023-07-02T06:41:48;13.13;;;9.33;;
2299;SDS011;1158;48.750;9.078;2023-07-02T06:44:14;19.33;;;10.30;;
2299;SDS011;1158;48.750;9.078;2023-07-02T06:46:44;16.83;;;10.30;;
2299;SDS011;1158;48.750;9.078;2023-07-02T06:49:12;17.70;;;9.60;;
2299;SDS011;1158;48.750;9.078;2023-07-02T06:51:38;18.57;;;11.00;;
2299;SDS011;1158;48.750;9.078;2023-07-02T06:54:06;16.57;;;10.13;;
2299;SDS011;1158;48.750;9.078;2023-07-02T06:56:33;20.53;;;10.77;;
2299;SDS011;1158;48.750;9.078;2023-07-02T06:59:00;21.90;;;10.70;;
2299;SDS011;1158;48.750;9.078;2023-07-02T07:01:26;18.93;;;11.83;;
2299;SDS011;1158;48.750;9.078;2023-07-02T07:03:54;19.20;;;10.60;;
2299;SDS011;1158;48.750;9.078;2023-07-02T07:06:21;17.60;;;11.00;;
2299;SDS011;1158;48.750;9.078;2023-07-02T07:08:48;19.63;;;10.83;;
2299;SDS011;1158;48.750;9.078;2023-07-02T07:11:15;18.60;;;11.87;;
2299;SDS011;1158;48.750;9.078;2023-07-02T07:13:42;18.73;;;10.87;;
2299;SDS011;1158;48.750;9.078;2023-07-02T07:16:09;16.90;;;10.90;;
2299;SDS011;1158;48.750;9.078;2023-07-02T07:18:37;19.53;;;12.97;;
2299;SDS011;1158;48.750;9.078;2023-07-02T07:21:05;23.43;;;12.77;;
2299;SDS011;1158;48.750;9.078;2023-07-02T07:23:32;21.20;;;12.90;;
2299;SDS011;1158;48.750;9.078;2023-07-02T07:25:58;22.50;;;13.70;;
2299;SDS011;1158;48.750;9.078;2023-07-02T07:28:25;25.50;;;13.10;;
2299;SDS011;1158;48.750;9.078;2023-07-02T07:30:52;24.50;;;14.40;;
2299;SDS011;1158;48.750;9.078;2023-07-02T07:33:19;21.93;;;13.20;;
2299;SDS011;1158;48.750;9.078;2023-07-02T07:35:45;21.60;;;14.67;;
2299;SDS011;1158;48.750;9.078;2023-07-02T07:38:14;24.60;;;13.30;;
2299;SDS011;1158;48.750;9.078;2023-07-02T07:40:41;21.03;;;13.80;;
2299;SDS011;1158;48.750;9.078;2023-07-02T07:43:08;25.70;;;14.10;;
2299;SDS011;1158;48.750;9.078;2023-07-02T07:45:35;26.50;;;14.70;;
2299;SDS011;1158;48.750;9.078;2023-07-02T07:48:02;22.03;;;14.20;;
2299;SDS011;1158;48.750;9.078;2023-07-02T07:50:30;22.90;;;14.37;;
2299;SDS011;1158;48.750;9.078;2023-07-02T07:52:56;26.33;;;13.10;;
2299;SDS011;1158;48.750;9.078;2023-07-02T07:55:25;21.70;;;13.10;;
2299;SDS011;1158;48.750;9.078;2023-07-02T07:57:52;31.67;;;15.37;;
2299;SDS011;1158;48.750;9.078;2023-07-02T08:00:19;24.47;;;14.03;;
2299;SDS011;1158;48.750;9.078;2023-07-02T08:02:46;18.27;;;12.73;;
2299;SDS011;1158;48.750;9.078;2023-07-02T08:05:13;47.07;;;15.10;;
2299;SDS011;1158;48.750;9.078;2023-07-02T08:07:40;21.93;;;13.43;;
2299;SDS011;1158;48.750;9.078;2023-07-02T08:10:07;30.37;;;15.60;;
2299;SDS011;1158;48.750;9.078;2023-07-02T08:12:36;27.97;;;14.00;;
2299;SDS011;1158;48.750;9.078;2023-07-02T08:15:03;24.67;;;14.50;;
2299;SDS011;1158;48.750;9.078;2023-07-02T08:17:31;27.90;;;14.10;;
2299;SDS011;1158;48.750;9.078;2023-07-02T08:19:57;31.13;;;16.00;;
2299;SDS011;1158;48.750;9.078;2023-07-02T08:22:24;26.43;;;13.60;;
2299;SDS011;1158;48.750;9.078;2023-07-02T08:24:51;24.47;;;15.60;;
2299;SDS011;1158;48.750;9.078;2023-07-02T08:27:18;32.93;;;14.40;;
2299;SDS011;1158;48.750;9.078;2023-07-02T08:29:46;25.10;;;15.20;;
2299;SDS011;1158;48.750;9.078;2023-07-02T08:32:13;22.83;;;13.80;;
2299;SDS011;1158;48.750;9.078;2023-07-02T08:34:40;23.73;;;14.90;;
2299;SDS011;1158;48.750;9.078;2023-07-02T08:37:07;20.37;;;13.43;;
2299;SDS011;1158;48.750;9.078;2023-07-02T08:39:34;22.57;;;13.73;;
2299;SDS011;1158;48.750;9.078;2023-07-02T08:42:01;21.93;;;14.13;;
2299;SDS011;1158;48.750;9.078;2023-07-02T08:44:27;22.83;;;14.67;;
2299;SDS011;1158;48.750;9.078;2023-07-02T08:46:56;25.17;;;13.67;;
2299;SDS011;1158;48.750;9.078;2023-07-02T08:49:22;23.20;;;14.97;;
2299;SDS011;1158;48.750;9.078;2023-07-02T08:51:49;25.00;;;14.70;;
2299;SDS011;1158;48.750;9.078;2023-07-02T08:54:17;24.10;;;13.57;;
2299;SDS011;1158;48.750;9.078;2023-07-02T08:56:44;17.50;;;12.70;;
2299;SDS011;1158;48.750;9.078;2023-07-02T08:59:12;17.90;;;12.30;;
2299;SDS011;1158;48.750;9.078;2023-07-02T09:01:45;20.33;;;13.03;;
2299;SDS011;1158;48.750;9.078;2023-07-02T09:04:18;21.47;;;13.23;;
2299;SDS011;1158;48.750;9.078;2023-07-02T09:09:12;22.93;;;11.93;;
2299;SDS011;1158;48.750;9.078;2023-07-02T09:11:48;18.37;;;12.57;;
2299;SDS011;1158;48.750;9.078;2023-07-02T09:14:25;22.33;;;11.43;;
2299;SDS011;1158;48.750;9.078;2023-07-02T09:17:03;22.27;;;12.90;;
2299;SDS011;1158;48.750;9.078;2023-07-02T09:19:32;16.53;;;11.87;;
2299;SDS011;1158;48.750;9.078;2023-07-02T09:21:59;16.83;;;13.20;;
2299;SDS011;1158;48.750;9.078;2023-07-02T09:24:27;17.00;;;12.40;;
2299;SDS011;1158;48.750;9.078;2023-07-02T09:26:55;17.80;;;11.80;;
2299;SDS011;1158;48.750;9.078;2023-07-02T09:29:23;14.63;;;11.33;;
2299;SDS011;1158;48.750;9.078;2023-07-02T09:31:53;18.13;;;10.90;;
2299;SDS011;1158;48.750;9.078;2023-07-02T09:34:26;21.20;;;12.27;;
2299;SDS011;1158;48.750;9.078;2023-07-02T09:36:55;23.00;;;12.20;;
2299;SDS011;1158;48.750;9.078;2023-07-02T09:39:25;18.00;;;11.57;;
2299;SDS011;1158;48.750;9.078;2023-07-02T09:41:52;21.47;;;13.70;;
2299;SDS011;1158;48.750;9.078;2023-07-02T09:44:20;18.50;;;13.53;;
2299;SDS011;1158;48.750;9.078;2023-07-02T09:46:49;19.80;;;11.73;;
2299;SDS011;1158;48.750;9.078;2023-07-02T09:49:22;17.70;;;11.30;;
2299;SDS011;1158;48.750;9.078;2023-07-02T09:51:49;19.17;;;11.30;;
2299;SDS011;1158;48.750;9.078;2023-07-02T09:54:18;18.83;;;12.93;;
2299;SDS011;1158;48.750;9.078;2023-07-02T09:56:46;21.70;;;11.77;;
2299;SDS011;1158;48.750;9.078;2023-07-02T09:59:13;19.67;;;12.90;;
2299;SDS011;1158;48.750;9.078;2023-07-02T10:01:40;17.53;;;12.97;;
2299;SDS011;1158;48.750;9.078;2023-07-02T10:04:11;21.60;;;14.20;;
2299;SDS011;1158;48.750;9.078;2023-07-02T10:06:44;15.80;;;12.60;;
2299;SDS011;1158;48.750;9.078;2023-07-02T10:09:15;16.63;;;12.37;;
2299;SDS011;1158;48.750;9.078;2023-07-02T10:11:44;21.70;;;13.63;;
2299;SDS011;1158;48.750;9.078;2023-07-02T10:14:11;20.90;;;16.00;;
2299;SDS011;1158;48.750;9.078;2023-07-02T10:16:48;16.50;;;12.60;;
2299;SDS011;1158;48.750;9.078;2023-07-02T10:19:15;24.27;;;15.53;;
2299;SDS011;1158;48.750;9.078;2023-07-02T10:21:42;20.00;;;14.70;;
2299;SDS011;1158;48.750;9.078;2023-07-02T10:24:11;24.23;;;15.17;;
2299;SDS011;1158;48.750;9.078;2023-07-02T10:26:39;27.50;;;15.50;;
2299;SDS011;1158;48.750;9.078;2023-07-02T10:29:21;23.17;;;15.37;;
2299;SDS011;1158;48.750;9.078;2023-07-02T10:31:49;23.90;;;14.97;;
2299;SDS011;1158;48.750;9.078;2023-07-02T10:34:16;20.80;;;15.33;;
2299;SDS011;1158;48.750;9.078;2023-07-02T10:36:54;27.10;;;15.30;;
2299;SDS011;1158;48.750;9.078;2023-07-02T10:39:21;22.23;;;15.13;;
2299;SDS011;1158;48.750;9.078;2023-07-02T10:41:48;22.93;;;14.77;;
2299;SDS011;1158;48.750;9.078;2023-07-02T10:44:16;23.80;;;14.90;;
2299;SDS011;1158;48.750;9.078;2023-07-02T10:46:44;28.57;;;15.60;;
2299;SDS011;1158;48.750;9.078;2023-07-02T10:49:11;19.10;;;14.87;;
2299;SDS011;1158;48.750;9.078;2023-07-02T10:51:38;19.40;;;13.97;;
2299;SDS011;1158;48.750;9.078;2023-07-02T10:54:05;20.30;;;14.67;;
2299;SDS011;1158;48.750;9.078;2023-07-02T10:56:33;21.37;;;14.53;;
2299;SDS011;1158;48.750;9.078;2023-07-02T10:59:01;23.03;;;14.50;;
2299;SDS011;1158;48.750;9.078;2023-07-02T11:01:30;24.97;;;14.80;;
2299;SDS011;1158;48.750;9.078;2023-07-02T11:03:58;25.50;;;14.43;;
2299;SDS011;1158;48.750;9.078;2023-07-02T11:06:26;19.07;;;13.67;;
2299;SDS011;1158;48.750;9.078;2023-07-02T11:08:53;19.10;;;13.87;;
2299;SDS011;1158;48.750;9.078;2023-07-02T11:11:21;19.80;;;13.73;;
2299;SDS011;1158;48.750;9.078;2023-07-02T11:13:48;24.20;;;14.30;;
2299;SDS011;1158;48.750;9.078;2023-07-02T11:16:20;22.03;;;14.40;;
2299;SDS011;1158;48.750;9.078;2023-07-02T11:18:51;21.97;;;14.43;;
2299;SDS011;1158;48.750;9.078;2023-07-02T11:21:19;18.40;;;13.43;;
2299;SDS011;1158;48.750;9.078;2023-07-02T11:23:46;21.50;;;14.40;;
2299;SDS011;1158;48.750;9.078;2023-07-02T11:26:13;21.03;;;13.20;;
2299;SDS011;1158;48.750;9.078;2023-07-02T11:28:48;19.20;;;13.53;;
2299;SDS011;1158;48.750;9.078;2023-07-02T11:31:24;19.27;;;14.10;;
2299;SDS011;1158;48.750;9.078;2023-07-02T11:33:53;19.40;;;13.80;;
2299;SDS011;1158;48.750;9.078;2023-07-02T11:36:21;18.97;;;13.37;;
2299;SDS011;1158;48.750;9.078;2023-07-02T11:38:49;19.50;;;12.97;;
2299;SDS011;1158;48.750;9.078;2023-07-02T11:41:19;18.83;;;14.07;;
2299;SDS011;1158;48.750;9.078;2023-07-02T11:43:46;20.53;;;14.20;;
2299;SDS011;1158;48.750;9.078;2023-07-02T11:46:13;20.70;;;13.33;;
2299;SDS011;1158;48.750;9.078;2023-07-02T11:48:40;19.87;;;14.07;;
2299;SDS011;1158;48.750;9.078;2023-07-02T11:51:08;20.37;;;14.27;;
2299;SDS011;1158;48.750;9.078;2023-07-02T11:53:35;21.60;;;13.87;;
2299;SDS011;1158;48.750;9.078;2023-07-02T11:56:02;18.00;;;13.27;;
2299;SDS011;1158;48.750;9.078;2023-07-02T11:58:29;21.77;;;12.90;;
2299;SDS011;1158;48.750;9.078;2023-07-02T12:00:56;19.90;;;14.13;;
2299;SDS011;1158;48.750;9.078;2023-07-02T12:03:22;22.27;;;13.97;;
2299;SDS011;1158;48.750;9.078;2023-07-02T12:05:49;18.43;;;13.23;;
2299;SDS011;1158;48.750;9.078;2023-07-02T12:08:17;19.27;;;14.10;;
2299;SDS011;1158;48.750;9.078;2023-07-02T12:10:44;23.07;;;14.27;;
2299;SDS011;1158;48.750;9.078;2023-07-02T12:13:11;16.33;;;13.70;;
2299;SDS011;1158;48.750;9.078;2023-07-02T12:15:38;18.47;;;13.73;;
2299;SDS011;1158;48.750;9.078;2023-07-02T12:18:05;23.00;;;15.07;;
2299;SDS011;1158;48.750;9.078;2023-07-02T12:20:32;18.20;;;13.07;;
2299;SDS011;1158;48.750;9.078;2023-07-02T12:22:58;22.50;;;15.90;;
2299;SDS011;1158;48.750;9.078;2023-07-02T12:25:27;19.60;;;14.80;;
2299;SDS011;1158;48.750;9.078;2023-07-02T12:27:54;18.00;;;14.30;;
2299;SDS011;1158;48.750;9.078;2023-07-02T12:30:20;19.53;;;14.23;;
2299;SDS011;1158;48.750;9.078;2023-07-02T12:32:47;19.73;;;13.40;;
2299;SDS011;1158;48.750;9.078;2023-07-02T12:35:14;20.13;;;14.03;;
2299;SDS011;1158;48.750;9.078;2023-07-02T12:37:44;21.37;;;14.33;;
2299;SDS011;1158;48.750;9.078;2023-07-02T12:40:12;18.80;;;14.47;;
2299;SDS011;1158;48.750;9.078;2023-07-02T12:42:41;24.47;;;15.40;;
2299;SDS011;1158;48.750;9.078;2023-07-02T12:45:09;18.47;;;14.53;;
2299;SDS011;1158;48.750;9.078;2023-07-02T12:47:37;21.50;;;15.00;;
2299;SDS011;1158;48.750;9.078;2023-07-02T12:50:04;19.27;;;14.13;;
2299;SDS011;1158;48.750;9.078;2023-07-02T12:52:31;20.50;;;14.13;;
2299;SDS011;1158;48.750;9.078;2023-07-02T12:54:58;23.30;;;14.93;;
2299;SDS011;1158;48.750;9.078;2023-07-02T12:57:25;18.13;;;14.30;;
2299;SDS011;1158;48.750;9.078;2023-07-02T12:59:53;19.87;;;13.80;;
2299;SDS011;1158;48.750;9.078;2023-07-02T13:02:20;18.93;;;12.93;;
2299;SDS011;1158;48.750;9.078;2023-07-02T13:04:48;24.20;;;13.80;;
2299;SDS011;1158;48.750;9.078;2023-07-02T13:07:15;17.43;;;13.60;;
2299;SDS011;1158;48.750;9.078;2023-07-02T13:09:42;19.60;;;14.30;;
2299;SDS011;1158;48.750;9.078;2023-07-02T13:12:10;19.67;;;13.97;;
2299;SDS011;1158;48.750;9.078;2023-07-02T13:14:37;20.67;;;14.10;;
2299;SDS011;1158;48.750;9.078;2023-07-02T13:17:05;18.80;;;14.10;;
2299;SDS011;1158;48.750;9.078;2023-07-02T13:19:32;21.30;;;14.30;;
2299;SDS011;1158;48.750;9.078;2023-07-02T13:22:00;20.30;;;14.20;;
2299;SDS011;1158;48.750;9.078;2023-07-02T13:24:28;21.33;;;14.50;;
2299;SDS011;1158;48.750;9.078;2023-07-02T13:26:59;18.20;;;13.70;;
2299;SDS011;1158;48.750;9.078;2023-07-02T13:29:28;19.57;;;13.83;;
2299;SDS011;1158;48.750;9.078;2023-07-02T13:31:54;17.30;;;14.17;;
2299;SDS011;1158;48.750;9.078;2023-07-02T13:34:23;18.63;;;13.67;;
2299;SDS011;1158;48.750;9.078;2023-07-02T13:36:50;15.43;;;13.00;;
2299;SDS011;1158;48.750;9.078;2023-07-02T13:39:18;18.47;;;13.57;;
2299;SDS011;1158;48.750;9.078;2023-07-02T13:41:44;18.73;;;13.97;;
2299;SDS011;1158;48.750;9.078;2023-07-02T13:44:11;18.60;;;13.10;;
2299;SDS011;1158;48.750;9.078;2023-07-02T13:46:38;20.30;;;14.40;;
2299;SDS011;1158;48.750;9.078;2023-07-02T13:49:05;18.83;;;14.43;;
2299;SDS011;1158;48.750;9.078;2023-07-02T13:51:33;19.20;;;13.57;;
2299;SDS011;1158;48.750;9.078;2023-07-02T13:54:01;19.27;;;13.57;;
2299;SDS011;1158;48.750;9.078;2023-07-02T13:56:28;18.03;;;13.33;;
2299;SDS011;1158;48.750;9.078;2023-07-02T13:59:00;19.93;;;14.00;;
2299;SDS011;1158;48.750;9.078;2023-07-02T14:01:28;21.20;;;13.87;;
2299;SDS011;1158;48.750;9.078;2023-07-02T14:03:55;18.07;;;13.80;;
2299;SDS011;1158;48.750;9.078;2023-07-02T14:06:21;16.23;;;12.70;;
2299;SDS011;1158;48.750;9.078;2023-07-02T14:08:48;16.47;;;13.47;;
2299;SDS011;1158;48.750;9.078;2023-07-02T14:11:15;18.63;;;13.97;;
2299;SDS011;1158;48.750;9.078;2023-07-02T14:13:42;19.73;;;13.43;;
2299;SDS011;1158;48.750;9.078;2023-07-02T14:16:10;17.53;;;13.87;;
2299;SDS011;1158;48.750;9.078;2023-07-02T14:18:37;19.30;;;13.27;;
2299;SDS011;1158;48.750;9.078;2023-07-02T14:21:04;20.03;;;13.77;;
2299;SDS011;1158;48.750;9.078;2023-07-02T14:23:31;17.97;;;13.33;;
2299;SDS011;1158;48.750;9.078;2023-07-02T14:25:58;20.20;;;14.53;;
2299;SDS011;1158;48.750;9.078;2023-07-02T14:28:25;18.30;;;13.77;;
2299;SDS011;1158;48.750;9.078;2023-07-02T14:30:57;16.10;;;13.27;;
2299;SDS011;1158;48.750;9.078;2023-07-02T14:33:26;17.57;;;13.60;;
2299;SDS011;1158;48.750;9.078;2023-07-02T14:35:54;16.87;;;14.90;;
2299;SDS011;1158;48.750;9.078;2023-07-02T14:38:21;17.63;;;12.70;;
2299;SDS011;1158;48.750;9.078;2023-07-02T14:40:48;18.13;;;13.60;;
2299;SDS011;1158;48.750;9.078;2023-07-02T14:43:15;18.20;;;13.50;;
2299;SDS011;1158;48.750;9.078;2023-07-02T14:45:43;18.90;;;13.80;;
2299;SDS011;1158;48.750;9.078;2023-07-02T14:48:12;17.53;;;13.40;;
2299;SDS011;1158;48.750;9.078;2023-07-02T14:50:44;17.00;;;14.17;;
2299;SDS011;1158;48.750;9.078;2023-07-02T14:53:11;18.10;;;14.20;;
2299;SDS011;1158;48.750;9.078;2023-07-02T14:55:39;18.53;;;14.70;;
2299;SDS011;1158;48.750;9.078;2023-07-02T14:58:06;20.27;;;15.23;;
2299;SDS011;1158;48.750;9.078;2023-07-02T15:00:33;20.17;;;14.27;;
2299;SDS011;1158;48.750;9.078;2023-07-02T15:03:00;18.97;;;14.13;;